Burnips, Michigan
Current Conditions -  °F | °C
As of 7:53 AM on Saturday 25 Oct 2014 (Local Time) from KBIV Reporting Station
Broken Clouds Broken Clouds  
Wind Chill: 57°   Ceiling: 800
Heat Index: 57°   Visibility: 7mi
Dew Point: 54°   Wind: 13mph
Humidity: 89%   Direction: 260°W
Pressure: 29.86"   Gusts: NA
Location:  42.73°N, 85.84°W
Report Text: KBIV 251153Z AUTO 26011KT 7SM BKN008 14/12 A2986 RMK AO2 SLPNO T01390122 10156 20117 56001
Loading
Personal Weather Stations






























Interactive Weather Map
Tropical Storm Tracking
New forecast layout! Learn more

10-Day Weather Forecast

Advertisements
Track Severe Weather on mobile